<?xml version="1.0" encoding="UTF-8" standalone="no" ?>
<gpx xmlns="http://www.topografix.com/GPX/1/1" xmlns:xsi="http://www.w3.org/2001/XMLSchema-instance" xsi:schemaLocation="http://www.topografix.com/GPX/1/1 http://www.topografix.com/GPX/1/1/gpx.xsd" version="1.1" creator="VisuGPX - https://www.visugpx.com">
  <metadata>
    <name>07: Plateau de bouissac - sentier du Monna</name>
    <desc><![CDATA[07: Plateau de bouissac - sentier du Monna]]></desc>
  </metadata>
  <wpt lat="43.83631" lon="3.12279">
    <ele>520</ele>
    <name><![CDATA[Accueil PdC Centre]]></name>
  </wpt>
  <wpt lat="43.83608" lon="3.12216">
    <ele>530.1</ele>
    <name><![CDATA[PCC]]></name>
  </wpt>
  <wpt lat="43.83657" lon="3.11798">
    <ele>530.1</ele>
    <name><![CDATA[PCD]]></name>
  </wpt>
  <wpt lat="43.83618" lon="3.11496">
    <ele>569.9</ele>
    <name><![CDATA[BRA]]></name>
  </wpt>
  <wpt lat="43.83616" lon="3.1138">
    <ele>589.9</ele>
    <name><![CDATA[BRB]]></name>
  </wpt>
  <wpt lat="43.83393" lon="3.10913">
    <ele>690</ele>
    <name><![CDATA[BRG]]></name>
  </wpt>
  <wpt lat="43.83291" lon="3.10429">
    <ele>725</ele>
    <name><![CDATA[BSD]]></name>
  </wpt>
  <wpt lat="43.82969" lon="3.09937">
    <ele>744.9</ele>
    <name><![CDATA[BSE]]></name>
  </wpt>
  <wpt lat="43.82858" lon="3.09742">
    <ele>740.1</ele>
    <name><![CDATA[BSK]]></name>
  </wpt>
  <wpt lat="43.8255" lon="3.09785">
    <ele>675</ele>
    <name><![CDATA[GUF]]></name>
  </wpt>
  <wpt lat="43.82448" lon="3.09748">
    <ele>685.1</ele>
    <name><![CDATA[GUG]]></name>
  </wpt>
  <wpt lat="43.82246" lon="3.09944">
    <ele>730</ele>
    <name><![CDATA[PTA]]></name>
  </wpt>
  <wpt lat="43.82317" lon="3.10118">
    <ele>755</ele>
    <name><![CDATA[PTB]]></name>
  </wpt>
  <wpt lat="43.82268" lon="3.10293">
    <ele>750</ele>
    <name><![CDATA[PTC]]></name>
  </wpt>
  <wpt lat="43.82828" lon="3.10668">
    <ele>700</ele>
    <name><![CDATA[MNA]]></name>
  </wpt>
  <wpt lat="43.83195" lon="3.11422">
    <ele>675</ele>
    <name><![CDATA[MNB]]></name>
  </wpt>
  <wpt lat="43.83236" lon="3.11511">
    <ele>681.9</ele>
    <name><![CDATA[MNX]]></name>
  </wpt>
  <wpt lat="43.83245" lon="3.11467">
    <ele>680</ele>
    <name><![CDATA[MON]]></name>
  </wpt>
  <wpt lat="43.8332" lon="3.11656">
    <ele>665.1</ele>
    <name><![CDATA[MNC]]></name>
  </wpt>
  <wpt lat="43.83471" lon="3.1183">
    <ele>614.9</ele>
    <name><![CDATA[MND]]></name>
  </wpt>
  <trk>
    <name><![CDATA[RoTr 07 PdC]]></name>
    <trkseg>
      <trkpt lat="43.83656" lon="3.11798">
        <ele>535</ele>
        <time>2010-01-01T00:00:00Z</time>
      </trkpt>
      <trkpt lat="43.83654" lon="3.11795">
        <ele>535</ele>
        <time>2010-01-01T00:00:06Z</time>
      </trkpt>
      <trkpt lat="43.83632" lon="3.1169">
        <ele>542</ele>
        <time>2010-01-01T00:02:50Z</time>
      </trkpt>
      <trkpt lat="43.83628" lon="3.11652">
        <ele>544</ele>
        <time>2010-01-01T00:03:49Z</time>
      </trkpt>
      <trkpt lat="43.83628" lon="3.1161">
        <ele>546</ele>
        <time>2010-01-01T00:04:52Z</time>
      </trkpt>
      <trkpt lat="43.83623" lon="3.11583">
        <ele>548</ele>
        <time>2010-01-01T00:05:34Z</time>
      </trkpt>
      <trkpt lat="43.83614" lon="3.11503">
        <ele>555</ele>
        <time>2010-01-01T00:07:36Z</time>
      </trkpt>
      <trkpt lat="43.83614" lon="3.11503">
        <ele>555</ele>
        <time>2010-01-01T00:07:38Z</time>
      </trkpt>
      <trkpt lat="43.83611" lon="3.11449">
        <ele>564</ele>
        <time>2010-01-01T00:08:59Z</time>
      </trkpt>
      <trkpt lat="43.83616" lon="3.11419">
        <ele>567</ele>
        <time>2010-01-01T00:09:45Z</time>
      </trkpt>
      <trkpt lat="43.83618" lon="3.11403">
        <ele>571</ele>
        <time>2010-01-01T00:10:11Z</time>
      </trkpt>
      <trkpt lat="43.83618" lon="3.11389">
        <ele>574</ele>
        <time>2010-01-01T00:10:31Z</time>
      </trkpt>
      <trkpt lat="43.83617" lon="3.11383">
        <ele>576</ele>
        <time>2010-01-01T00:10:40Z</time>
      </trkpt>
      <trkpt lat="43.83615" lon="3.1138">
        <ele>577</ele>
        <time>2010-01-01T00:10:47Z</time>
      </trkpt>
      <trkpt lat="43.8361" lon="3.11388">
        <ele>577</ele>
        <time>2010-01-01T00:11:04Z</time>
      </trkpt>
      <trkpt lat="43.83602" lon="3.11387">
        <ele>579</ele>
        <time>2010-01-01T00:11:21Z</time>
      </trkpt>
      <trkpt lat="43.83576" lon="3.11335">
        <ele>599</ele>
        <time>2010-01-01T00:12:57Z</time>
      </trkpt>
      <trkpt lat="43.83556" lon="3.11293">
        <ele>610</ele>
        <time>2010-01-01T00:14:12Z</time>
      </trkpt>
      <trkpt lat="43.83537" lon="3.11259">
        <ele>618</ele>
        <time>2010-01-01T00:15:18Z</time>
      </trkpt>
      <trkpt lat="43.83447" lon="3.11066">
        <ele>664</ele>
        <time>2010-01-01T00:21:05Z</time>
      </trkpt>
      <trkpt lat="43.83424" lon="3.1102">
        <ele>671</ele>
        <time>2010-01-01T00:22:30Z</time>
      </trkpt>
      <trkpt lat="43.83407" lon="3.10975">
        <ele>678</ele>
        <time>2010-01-01T00:23:46Z</time>
      </trkpt>
      <trkpt lat="43.83385" lon="3.10926">
        <ele>683</ele>
        <time>2010-01-01T00:25:14Z</time>
      </trkpt>
      <trkpt lat="43.83386" lon="3.10917">
        <ele>685</ele>
        <time>2010-01-01T00:25:28Z</time>
      </trkpt>
      <trkpt lat="43.8339" lon="3.10918">
        <ele>686</ele>
        <time>2010-01-01T00:25:38Z</time>
      </trkpt>
      <trkpt lat="43.83394" lon="3.10912">
        <ele>688</ele>
        <time>2010-01-01T00:25:49Z</time>
      </trkpt>
      <trkpt lat="43.83394" lon="3.10908">
        <ele>688</ele>
        <time>2010-01-01T00:25:55Z</time>
      </trkpt>
      <trkpt lat="43.83399" lon="3.10808">
        <ele>700</ele>
        <time>2010-01-01T00:28:26Z</time>
      </trkpt>
      <trkpt lat="43.83366" lon="3.10716">
        <ele>706</ele>
        <time>2010-01-01T00:31:02Z</time>
      </trkpt>
      <trkpt lat="43.83346" lon="3.10669">
        <ele>711</ele>
        <time>2010-01-01T00:32:25Z</time>
      </trkpt>
      <trkpt lat="43.83318" lon="3.10628">
        <ele>714</ele>
        <time>2010-01-01T00:33:51Z</time>
      </trkpt>
      <trkpt lat="43.83306" lon="3.10569">
        <ele>718</ele>
        <time>2010-01-01T00:35:23Z</time>
      </trkpt>
      <trkpt lat="43.83298" lon="3.1054">
        <ele>719</ele>
        <time>2010-01-01T00:36:10Z</time>
      </trkpt>
      <trkpt lat="43.83294" lon="3.10505">
        <ele>721</ele>
        <time>2010-01-01T00:37:04Z</time>
      </trkpt>
      <trkpt lat="43.8329" lon="3.10463">
        <ele>724</ele>
        <time>2010-01-01T00:38:07Z</time>
      </trkpt>
      <trkpt lat="43.83292" lon="3.10426">
        <ele>727</ele>
        <time>2010-01-01T00:39:03Z</time>
      </trkpt>
      <trkpt lat="43.8329" lon="3.10425">
        <ele>727</ele>
        <time>2010-01-01T00:39:07Z</time>
      </trkpt>
      <trkpt lat="43.83191" lon="3.10381">
        <ele>726</ele>
        <time>2010-01-01T00:42:44Z</time>
      </trkpt>
      <trkpt lat="43.83152" lon="3.1038">
        <ele>718</ele>
        <time>2010-01-01T00:44:06Z</time>
      </trkpt>
      <trkpt lat="43.8314" lon="3.1029">
        <ele>722</ele>
        <time>2010-01-01T00:46:24Z</time>
      </trkpt>
      <trkpt lat="43.83135" lon="3.10266">
        <ele>725</ele>
        <time>2010-01-01T00:47:02Z</time>
      </trkpt>
      <trkpt lat="43.83142" lon="3.10237">
        <ele>729</ele>
        <time>2010-01-01T00:47:48Z</time>
      </trkpt>
      <trkpt lat="43.83127" lon="3.10218">
        <ele>728</ele>
        <time>2010-01-01T00:48:31Z</time>
      </trkpt>
      <trkpt lat="43.83097" lon="3.10161">
        <ele>729</ele>
        <time>2010-01-01T00:50:18Z</time>
      </trkpt>
      <trkpt lat="43.83109" lon="3.10139">
        <ele>731</ele>
        <time>2010-01-01T00:51:00Z</time>
      </trkpt>
      <trkpt lat="43.83114" lon="3.10125">
        <ele>732</ele>
        <time>2010-01-01T00:51:23Z</time>
      </trkpt>
      <trkpt lat="43.83128" lon="3.10089">
        <ele>733</ele>
        <time>2010-01-01T00:52:25Z</time>
      </trkpt>
      <trkpt lat="43.83122" lon="3.10078">
        <ele>733</ele>
        <time>2010-01-01T00:52:45Z</time>
      </trkpt>
      <trkpt lat="43.83102" lon="3.10041">
        <ele>733</ele>
        <time>2010-01-01T00:53:56Z</time>
      </trkpt>
      <trkpt lat="43.82968" lon="3.09938">
        <ele>740</ele>
        <time>2010-01-01T00:59:16Z</time>
      </trkpt>
      <trkpt lat="43.82966" lon="3.09936">
        <ele>741</ele>
        <time>2010-01-01T00:59:22Z</time>
      </trkpt>
      <trkpt lat="43.82854" lon="3.09742">
        <ele>736</ele>
        <time>2010-01-01T01:05:37Z</time>
      </trkpt>
      <trkpt lat="43.82853" lon="3.09741">
        <ele>736</ele>
        <time>2010-01-01T01:05:40Z</time>
      </trkpt>
      <trkpt lat="43.82813" lon="3.09747">
        <ele>732</ele>
        <time>2010-01-01T01:07:05Z</time>
      </trkpt>
      <trkpt lat="43.82759" lon="3.09714">
        <ele>723</ele>
        <time>2010-01-01T01:09:08Z</time>
      </trkpt>
      <trkpt lat="43.82723" lon="3.09703">
        <ele>716</ele>
        <time>2010-01-01T01:10:26Z</time>
      </trkpt>
      <trkpt lat="43.82694" lon="3.09684">
        <ele>709</ele>
        <time>2010-01-01T01:11:33Z</time>
      </trkpt>
      <trkpt lat="43.82668" lon="3.09676">
        <ele>703</ele>
        <time>2010-01-01T01:12:29Z</time>
      </trkpt>
      <trkpt lat="43.82611" lon="3.09757">
        <ele>695</ele>
        <time>2010-01-01T01:15:21Z</time>
      </trkpt>
      <trkpt lat="43.82596" lon="3.09753">
        <ele>692</ele>
        <time>2010-01-01T01:15:53Z</time>
      </trkpt>
      <trkpt lat="43.82551" lon="3.09785">
        <ele>689</ele>
        <time>2010-01-01T01:17:38Z</time>
      </trkpt>
      <trkpt lat="43.8255" lon="3.09787">
        <ele>689</ele>
        <time>2010-01-01T01:17:43Z</time>
      </trkpt>
      <trkpt lat="43.8254" lon="3.09811">
        <ele>688</ele>
        <time>2010-01-01T01:18:25Z</time>
      </trkpt>
      <trkpt lat="43.82464" lon="3.0977">
        <ele>695</ele>
        <time>2010-01-01T01:21:15Z</time>
      </trkpt>
      <trkpt lat="43.82448" lon="3.09752">
        <ele>696</ele>
        <time>2010-01-01T01:21:58Z</time>
      </trkpt>
      <trkpt lat="43.82446" lon="3.09749">
        <ele>696</ele>
        <time>2010-01-01T01:22:04Z</time>
      </trkpt>
      <trkpt lat="43.82439" lon="3.09754">
        <ele>697</ele>
        <time>2010-01-01T01:22:21Z</time>
      </trkpt>
      <trkpt lat="43.82425" lon="3.09749">
        <ele>697</ele>
        <time>2010-01-01T01:22:52Z</time>
      </trkpt>
      <trkpt lat="43.82404" lon="3.09755">
        <ele>700</ele>
        <time>2010-01-01T01:23:36Z</time>
      </trkpt>
      <trkpt lat="43.82322" lon="3.09798">
        <ele>716</ele>
        <time>2010-01-01T01:26:39Z</time>
      </trkpt>
      <trkpt lat="43.82254" lon="3.0994">
        <ele>728</ele>
        <time>2010-01-01T01:30:57Z</time>
      </trkpt>
      <trkpt lat="43.82253" lon="3.09944">
        <ele>729</ele>
        <time>2010-01-01T01:31:03Z</time>
      </trkpt>
      <trkpt lat="43.82329" lon="3.10112">
        <ele>757</ele>
        <time>2010-01-01T01:36:04Z</time>
      </trkpt>
      <trkpt lat="43.82329" lon="3.10114">
        <ele>758</ele>
        <time>2010-01-01T01:36:07Z</time>
      </trkpt>
      <trkpt lat="43.8227" lon="3.10291">
        <ele>754</ele>
        <time>2010-01-01T01:41:02Z</time>
      </trkpt>
      <trkpt lat="43.82272" lon="3.10292">
        <ele>754</ele>
        <time>2010-01-01T01:41:06Z</time>
      </trkpt>
      <trkpt lat="43.82298" lon="3.10317">
        <ele>752</ele>
        <time>2010-01-01T01:42:13Z</time>
      </trkpt>
      <trkpt lat="43.82324" lon="3.10361">
        <ele>748</ele>
        <time>2010-01-01T01:43:39Z</time>
      </trkpt>
      <trkpt lat="43.82388" lon="3.10434">
        <ele>743</ele>
        <time>2010-01-01T01:46:32Z</time>
      </trkpt>
      <trkpt lat="43.82454" lon="3.10525">
        <ele>739</ele>
        <time>2010-01-01T01:49:48Z</time>
      </trkpt>
      <trkpt lat="43.82479" lon="3.10526">
        <ele>739</ele>
        <time>2010-01-01T01:50:40Z</time>
      </trkpt>
      <trkpt lat="43.82537" lon="3.10594">
        <ele>732</ele>
        <time>2010-01-01T01:53:18Z</time>
      </trkpt>
      <trkpt lat="43.82708" lon="3.10693">
        <ele>714</ele>
        <time>2010-01-01T01:59:48Z</time>
      </trkpt>
      <trkpt lat="43.82765" lon="3.10731">
        <ele>706</ele>
        <time>2010-01-01T02:01:59Z</time>
      </trkpt>
      <trkpt lat="43.82783" lon="3.10726">
        <ele>704</ele>
        <time>2010-01-01T02:02:37Z</time>
      </trkpt>
      <trkpt lat="43.82801" lon="3.10701">
        <ele>703</ele>
        <time>2010-01-01T02:03:31Z</time>
      </trkpt>
      <trkpt lat="43.82818" lon="3.10665">
        <ele>701</ele>
        <time>2010-01-01T02:04:38Z</time>
      </trkpt>
      <trkpt lat="43.82825" lon="3.10664">
        <ele>700</ele>
        <time>2010-01-01T02:04:51Z</time>
      </trkpt>
      <trkpt lat="43.82828" lon="3.10664">
        <ele>700</ele>
        <time>2010-01-01T02:04:58Z</time>
      </trkpt>
      <trkpt lat="43.82871" lon="3.10713">
        <ele>689</ele>
        <time>2010-01-01T02:06:54Z</time>
      </trkpt>
      <trkpt lat="43.82887" lon="3.10746">
        <ele>688</ele>
        <time>2010-01-01T02:07:54Z</time>
      </trkpt>
      <trkpt lat="43.82903" lon="3.10747">
        <ele>685</ele>
        <time>2010-01-01T02:08:28Z</time>
      </trkpt>
      <trkpt lat="43.82934" lon="3.10787">
        <ele>676</ele>
        <time>2010-01-01T02:09:57Z</time>
      </trkpt>
      <trkpt lat="43.82957" lon="3.10801">
        <ele>667</ele>
        <time>2010-01-01T02:10:49Z</time>
      </trkpt>
      <trkpt lat="43.83009" lon="3.10972">
        <ele>659</ele>
        <time>2010-01-01T02:15:29Z</time>
      </trkpt>
      <trkpt lat="43.83107" lon="3.11096">
        <ele>641</ele>
        <time>2010-01-01T02:20:08Z</time>
      </trkpt>
      <trkpt lat="43.83136" lon="3.11206">
        <ele>648</ele>
        <time>2010-01-01T02:23:05Z</time>
      </trkpt>
      <trkpt lat="43.83166" lon="3.11286">
        <ele>660</ele>
        <time>2010-01-01T02:25:21Z</time>
      </trkpt>
      <trkpt lat="43.83164" lon="3.11356">
        <ele>663</ele>
        <time>2010-01-01T02:27:06Z</time>
      </trkpt>
      <trkpt lat="43.83192" lon="3.11409">
        <ele>667</ele>
        <time>2010-01-01T02:28:46Z</time>
      </trkpt>
      <trkpt lat="43.83194" lon="3.11412">
        <ele>667</ele>
        <time>2010-01-01T02:28:53Z</time>
      </trkpt>
      <trkpt lat="43.83248" lon="3.11448">
        <ele>674</ele>
        <time>2010-01-01T02:30:58Z</time>
      </trkpt>
      <trkpt lat="43.83237" lon="3.11502">
        <ele>676</ele>
        <time>2010-01-01T02:32:23Z</time>
      </trkpt>
      <trkpt lat="43.83238" lon="3.11504">
        <ele>676</ele>
        <time>2010-01-01T02:32:25Z</time>
      </trkpt>
      <trkpt lat="43.83251" lon="3.11448">
        <ele>674</ele>
        <time>2010-01-01T02:33:54Z</time>
      </trkpt>
      <trkpt lat="43.83271" lon="3.11461">
        <ele>669</ele>
        <time>2010-01-01T02:34:41Z</time>
      </trkpt>
      <trkpt lat="43.8332" lon="3.11486">
        <ele>658</ele>
        <time>2010-01-01T02:36:28Z</time>
      </trkpt>
      <trkpt lat="43.83341" lon="3.11538">
        <ele>657</ele>
        <time>2010-01-01T02:37:59Z</time>
      </trkpt>
      <trkpt lat="43.83328" lon="3.1159">
        <ele>663</ele>
        <time>2010-01-01T02:39:22Z</time>
      </trkpt>
      <trkpt lat="43.83324" lon="3.11645">
        <ele>661</ele>
        <time>2010-01-01T02:40:46Z</time>
      </trkpt>
      <trkpt lat="43.83325" lon="3.11651">
        <ele>661</ele>
        <time>2010-01-01T02:40:55Z</time>
      </trkpt>
      <trkpt lat="43.83345" lon="3.11715">
        <ele>648</ele>
        <time>2010-01-01T02:42:40Z</time>
      </trkpt>
      <trkpt lat="43.83371" lon="3.11726">
        <ele>642</ele>
        <time>2010-01-01T02:43:37Z</time>
      </trkpt>
      <trkpt lat="43.83407" lon="3.1177">
        <ele>631</ele>
        <time>2010-01-01T02:45:16Z</time>
      </trkpt>
      <trkpt lat="43.83443" lon="3.11791">
        <ele>618</ele>
        <time>2010-01-01T02:46:39Z</time>
      </trkpt>
      <trkpt lat="43.83457" lon="3.11798">
        <ele>612</ele>
        <time>2010-01-01T02:47:11Z</time>
      </trkpt>
      <trkpt lat="43.8347" lon="3.11827">
        <ele>607</ele>
        <time>2010-01-01T02:48:02Z</time>
      </trkpt>
      <trkpt lat="43.83472" lon="3.1183">
        <ele>606</ele>
        <time>2010-01-01T02:48:08Z</time>
      </trkpt>
      <trkpt lat="43.83533" lon="3.11906">
        <ele>583</ele>
        <time>2010-01-01T02:51:00Z</time>
      </trkpt>
      <trkpt lat="43.83566" lon="3.11928">
        <ele>574</ele>
        <time>2010-01-01T02:52:17Z</time>
      </trkpt>
      <trkpt lat="43.83581" lon="3.11963">
        <ele>572</ele>
        <time>2010-01-01T02:53:19Z</time>
      </trkpt>
      <trkpt lat="43.83599" lon="3.1199">
        <ele>568</ele>
        <time>2010-01-01T02:54:15Z</time>
      </trkpt>
      <trkpt lat="43.836" lon="3.12007">
        <ele>567</ele>
        <time>2010-01-01T02:54:40Z</time>
      </trkpt>
      <trkpt lat="43.83618" lon="3.12046">
        <ele>552</ele>
        <time>2010-01-01T02:55:51Z</time>
      </trkpt>
      <trkpt lat="43.83619" lon="3.12096">
        <ele>544</ele>
        <time>2010-01-01T02:57:06Z</time>
      </trkpt>
      <trkpt lat="43.83622" lon="3.12124">
        <ele>538</ele>
        <time>2010-01-01T02:57:49Z</time>
      </trkpt>
      <trkpt lat="43.83632" lon="3.12136">
        <ele>534</ele>
        <time>2010-01-01T02:58:15Z</time>
      </trkpt>
      <trkpt lat="43.83621" lon="3.12196">
        <ele>527</ele>
        <time>2010-01-01T02:59:50Z</time>
      </trkpt>
      <trkpt lat="43.83604" lon="3.12203">
        <ele>528</ele>
        <time>2010-01-01T03:00:28Z</time>
      </trkpt>
      <trkpt lat="43.83606" lon="3.12212">
        <ele>527</ele>
        <time>2010-01-01T03:00:43Z</time>
      </trkpt>
    </trkseg>
  </trk>
</gpx>